sensor_id;sensor_type;location;lat;lon;timestamp;pressure;altitude;pressure_sealevel;temperature;humidity
2875;BME280;1445;52.600;13.328;2023-10-09T00:02:13;101634.28;;;11.92;nan
2875;BME280;1445;52.600;13.328;2023-10-09T00:04:39;101637.03;;;11.92;nan
2875;BME280;1445;52.600;13.328;2023-10-09T00:07:10;101640.38;;;11.89;nan
2875;BME280;1445;52.600;13.328;2023-10-09T00:09:36;101655.91;;;11.80;nan
2875;BME280;1445;52.600;13.328;2023-10-09T00:12:16;101654.59;;;11.73;nan
2875;BME280;1445;52.600;13.328;2023-10-09T00:14:42;101656.25;;;11.68;nan
2875;BME280;1445;52.600;13.328;2023-10-09T00:17:13;101666.22;;;11.69;nan
2875;BME280;1445;52.600;13.328;2023-10-09T00:19:38;101658.16;;;11.73;nan
2875;BME280;1445;52.600;13.328;2023-10-09T00:22:03;101655.72;;;11.66;nan
2875;BME280;1445;52.600;13.328;2023-10-09T00:25:04;101642.88;;;11.46;nan
2875;BME280;1445;52.600;13.328;2023-10-09T00:27:39;101647.06;;;11.39;nan
2875;BME280;1445;52.600;13.328;2023-10-09T00:30:07;101649.66;;;11.20;nan
2875;BME280;1445;52.600;13.328;2023-10-09T00:32:34;101660.28;;;10.77;nan
2875;BME280;1445;52.600;13.328;2023-10-09T00:35:02;101667.47;;;10.73;nan
2875;BME280;1445;52.600;13.328;2023-10-09T00:37:47;101662.50;;;10.70;nan
2875;BME280;1445;52.600;13.328;2023-10-09T00:40:13;101661.13;;;10.72;nan
2875;BME280;1445;52.600;13.328;2023-10-09T00:42:45;101660.88;;;10.69;nan
2875;BME280;1445;52.600;13.328;2023-10-09T00:45:11;101672.75;;;10.59;nan
2875;BME280;1445;52.600;13.328;2023-10-09T00:47:41;101680.72;;;10.66;nan
2875;BME280;1445;52.600;13.328;2023-10-09T00:50:09;101672.19;;;10.67;nan
2875;BME280;1445;52.600;13.328;2023-10-09T00:52:41;101676.31;;;10.60;nan
2875;BME280;1445;52.600;13.328;2023-10-09T00:55:16;101672.19;;;10.67;nan
2875;BME280;1445;52.600;13.328;2023-10-09T00:57:46;101676.63;;;10.58;nan
2875;BME280;1445;52.600;13.328;2023-10-09T01:00:15;101668.63;;;10.57;nan
2875;BME280;1445;52.600;13.328;2023-10-09T01:03:10;101681.28;;;10.63;nan
2875;BME280;1445;52.600;13.328;2023-10-09T01:05:45;101684.31;;;10.66;nan
2875;BME280;1445;52.600;13.328;2023-10-09T01:08:38;101675.25;;;10.61;nan
2875;BME280;1445;52.600;13.328;2023-10-09T01:11:07;101658.13;;;10.59;nan
2875;BME280;1445;52.600;13.328;2023-10-09T01:13:39;101662.53;;;10.60;nan
2875;BME280;1445;52.600;13.328;2023-10-09T01:16:07;101662.00;;;10.52;nan
2875;BME280;1445;52.600;13.328;2023-10-09T01:18:39;101663.38;;;10.60;nan
2875;BME280;1445;52.600;13.328;2023-10-09T01:21:06;101657.03;;;10.60;nan
2875;BME280;1445;52.600;13.328;2023-10-09T01:23:31;101650.69;;;10.59;nan
2875;BME280;1445;52.600;13.328;2023-10-09T01:25:56;101647.66;;;10.56;nan
2875;BME280;1445;52.600;13.328;2023-10-09T01:28:22;101647.41;;;10.52;nan
2875;BME280;1445;52.600;13.328;2023-10-09T01:30:49;101643.25;;;10.60;nan
2875;BME280;1445;52.600;13.328;2023-10-09T01:33:16;101625.88;;;10.59;nan
2875;BME280;1445;52.600;13.328;2023-10-09T01:35:47;101621.75;;;10.57;nan
2875;BME280;1445;52.600;13.328;2023-10-09T01:38:13;101602.75;;;10.50;nan
2875;BME280;1445;52.600;13.328;2023-10-09T01:40:40;101591.16;;;10.53;nan
2875;BME280;1445;52.600;13.328;2023-10-09T01:43:05;101577.94;;;10.50;nan
2875;BME280;1445;52.600;13.328;2023-10-09T01:45:35;101571.91;;;10.43;nan
2875;BME280;1445;52.600;13.328;2023-10-09T01:48:07;101560.88;;;10.43;nan
2875;BME280;1445;52.600;13.328;2023-10-09T01:50:33;101560.03;;;10.42;nan
2875;BME280;1445;52.600;13.328;2023-10-09T01:53:00;101561.41;;;10.45;nan
2875;BME280;1445;52.600;13.328;2023-10-09T01:55:31;101565.28;;;10.44;nan
2875;BME280;1445;52.600;13.328;2023-10-09T01:58:00;101562.25;;;10.40;nan
2875;BME280;1445;52.600;13.328;2023-10-09T02:00:31;101550.13;;;10.41;nan
2875;BME280;1445;52.600;13.328;2023-10-09T02:02:56;101550.13;;;10.41;nan
2875;BME280;1445;52.600;13.328;2023-10-09T02:05:24;101543.78;;;10.46;nan
2875;BME280;1445;52.600;13.328;2023-10-09T02:07:51;101551.50;;;10.44;nan
2875;BME280;1445;52.600;13.328;2023-10-09T02:10:17;101550.97;;;10.37;nan
2875;BME280;1445;52.600;13.328;2023-10-09T02:13:02;101558.97;;;10.33;nan
2875;BME280;1445;52.600;13.328;2023-10-09T02:15:37;101570.28;;;10.06;nan
2875;BME280;1445;52.600;13.328;2023-10-09T02:18:24;101576.06;;;10.15;nan
2875;BME280;1445;52.600;13.328;2023-10-09T02:23:30;101559.25;;;10.21;nan
2875;BME280;1445;52.600;13.328;2023-10-09T02:26:07;101577.44;;;10.22;nan
2875;BME280;1445;52.600;13.328;2023-10-09T02:28:33;101576.06;;;10.30;nan
2875;BME280;1445;52.600;13.328;2023-10-09T02:30:59;101580.47;;;10.36;nan
2875;BME280;1445;52.600;13.328;2023-10-09T02:33:35;101593.66;;;10.24;nan
2875;BME280;1445;52.600;13.328;2023-10-09T02:36:01;101592.88;;;10.18;nan
2875;BME280;1445;52.600;13.328;2023-10-09T02:38:30;101594.50;;;10.14;nan
2875;BME280;1445;52.600;13.328;2023-10-09T02:40:58;101594.25;;;10.11;nan
2875;BME280;1445;52.600;13.328;2023-10-09T02:43:30;101586.25;;;10.14;nan
2875;BME280;1445;52.600;13.328;2023-10-09T02:46:14;101568.06;;;10.13;nan
2875;BME280;1445;52.600;13.328;2023-10-09T02:48:49;101567.81;;;10.04;nan
2875;BME280;1445;52.600;13.328;2023-10-09T02:51:18;101557.63;;;10.05;nan
2875;BME280;1445;52.600;13.328;2023-10-09T02:54:06;101559.28;;;10.11;nan
2875;BME280;1445;52.600;13.328;2023-10-09T02:56:52;101542.16;;;10.14;nan
2875;BME280;1445;52.600;13.328;2023-10-09T02:59:35;101540.25;;;10.15;nan
2875;BME280;1445;52.600;13.328;2023-10-09T03:02:03;101543.00;;;10.25;nan
2875;BME280;1445;52.600;13.328;2023-10-09T03:04:29;101541.59;;;10.27;nan
2875;BME280;1445;52.600;13.328;2023-10-09T03:06:57;101536.91;;;10.33;nan
2875;BME280;1445;52.600;13.328;2023-10-09T03:09:23;101525.06;;;10.33;nan
2875;BME280;1445;52.600;13.328;2023-10-09T03:11:56;101524.53;;;10.31;nan
2875;BME280;1445;52.600;13.328;2023-10-09T03:14:25;101514.88;;;10.28;nan
2875;BME280;1445;52.600;13.328;2023-10-09T03:16:51;101504.41;;;10.25;nan
2875;BME280;1445;52.600;13.328;2023-10-09T03:19:17;101503.59;;;10.30;nan
2875;BME280;1445;52.600;13.328;2023-10-09T03:21:42;101491.44;;;10.31;nan
2875;BME280;1445;52.600;13.328;2023-10-09T03:24:07;101501.94;;;10.29;nan
2875;BME280;1445;52.600;13.328;2023-10-09T03:26:33;101491.75;;;10.29;nan
2875;BME280;1445;52.600;13.328;2023-10-09T03:28:59;101476.28;;;10.33;nan
2875;BME280;1445;52.600;13.328;2023-10-09T03:31:31;101480.97;;;10.33;nan
2875;BME280;1445;52.600;13.328;2023-10-09T03:33:57;101472.97;;;10.31;nan
2875;BME280;1445;52.600;13.328;2023-10-09T03:36:22;101465.81;;;10.30;nan
2875;BME280;1445;52.600;13.328;2023-10-09T03:38:51;101447.63;;;10.34;nan
2875;BME280;1445;52.600;13.328;2023-10-09T03:41:19;101431.34;;;10.38;nan
2875;BME280;1445;52.600;13.328;2023-10-09T03:43:45;101422.81;;;10.39;nan
2875;BME280;1445;52.600;13.328;2023-10-09T03:46:11;101409.59;;;10.36;nan
2875;BME280;1445;52.600;13.328;2023-10-09T03:48:58;101401.56;;;10.40;nan
2875;BME280;1445;52.600;13.328;2023-10-09T03:51:26;101404.06;;;10.36;nan
2875;BME280;1445;52.600;13.328;2023-10-09T03:53:51;101413.41;;;10.35;nan
2875;BME280;1445;52.600;13.328;2023-10-09T03:56:20;101427.72;;;10.42;nan
2875;BME280;1445;52.600;13.328;2023-10-09T03:58:47;101435.41;;;10.45;nan
2875;BME280;1445;52.600;13.328;2023-10-09T04:01:17;101432.97;;;10.44;nan
2875;BME280;1445;52.600;13.328;2023-10-09T04:03:49;101453.94;;;10.40;nan
2875;BME280;1445;52.600;13.328;2023-10-09T04:06:20;101478.50;;;10.36;nan
2875;BME280;1445;52.600;13.328;2023-10-09T04:08:46;101482.31;;;10.40;nan
2875;BME280;1445;52.600;13.328;2023-10-09T04:11:16;101482.28;;;10.45;nan
2875;BME280;1445;52.600;13.328;2023-10-09T04:13:44;101478.44;;;10.41;nan
2875;BME280;1445;52.600;13.328;2023-10-09T04:16:12;101474.00;;;10.50;nan
2875;BME280;1445;52.600;13.328;2023-10-09T04:18:56;101463.25;;;10.49;nan
2875;BME280;1445;52.600;13.328;2023-10-09T04:21:22;101448.06;;;10.51;nan
2875;BME280;1445;52.600;13.328;2023-10-09T04:24:13;101422.19;;;10.47;nan
2875;BME280;1445;52.600;13.328;2023-10-09T04:26:45;101413.94;;;10.42;nan
2875;BME280;1445;52.600;13.328;2023-10-09T04:29:11;101410.06;;;10.48;nan
2875;BME280;1445;52.600;13.328;2023-10-09T04:31:44;101427.72;;;10.42;nan
2875;BME280;1445;52.600;13.328;2023-10-09T04:34:17;101423.88;;;10.38;nan
2875;BME280;1445;52.600;13.328;2023-10-09T04:36:52;101417.84;;;10.36;nan
2875;BME280;1445;52.600;13.328;2023-10-09T04:39:27;101435.72;;;10.39;nan
2875;BME280;1445;52.600;13.328;2023-10-09T04:41:55;101432.44;;;10.37;nan
2875;BME280;1445;52.600;13.328;2023-10-09T04:44:39;101431.94;;;10.30;nan
2875;BME280;1445;52.600;13.328;2023-10-09T04:47:05;101435.22;;;10.37;nan
2875;BME280;1445;52.600;13.328;2023-10-09T04:49:39;101435.16;;;10.42;nan
2875;BME280;1445;52.600;13.328;2023-10-09T04:52:13;101421.69;;;10.35;nan
2875;BME280;1445;52.600;13.328;2023-10-09T04:55:05;101424.19;;;10.32;nan
2875;BME280;1445;52.600;13.328;2023-10-09T04:57:37;101408.50;;;10.32;nan
2875;BME280;1445;52.600;13.328;2023-10-09T05:00:15;101402.13;;;10.37;nan
2875;BME280;1445;52.600;13.328;2023-10-09T05:02:59;101398.81;;;10.40;nan
2875;BME280;1445;52.600;13.328;2023-10-09T05:05:31;101392.50;;;10.34;nan
2875;BME280;1445;52.600;13.328;2023-10-09T05:10:46;101380.41;;;10.25;nan
2875;BME280;1445;52.600;13.328;2023-10-09T05:13:24;101380.69;;;10.29;nan
2875;BME280;1445;52.600;13.328;2023-10-09T05:16:17;101384.00;;;10.25;nan
2875;BME280;1445;52.600;13.328;2023-10-09T05:18:56;101384.00;;;10.25;nan
2875;BME280;1445;52.600;13.328;2023-10-09T05:21:37;101388.94;;;10.23;nan
2875;BME280;1445;52.600;13.328;2023-10-09T05:24:12;101388.13;;;10.23;nan
2875;BME280;1445;52.600;13.328;2023-10-09T05:26:41;101388.41;;;10.26;nan
2875;BME280;1445;52.600;13.328;2023-10-09T05:29:10;101394.75;;;10.22;nan
2875;BME280;1445;52.600;13.328;2023-10-09T05:31:48;101391.16;;;10.26;nan
2875;BME280;1445;52.600;13.328;2023-10-09T05:34:32;101391.97;;;10.27;nan
2875;BME280;1445;52.600;13.328;2023-10-09T05:37:16;101379.53;;;10.35;nan
2875;BME280;1445;52.600;13.328;2023-10-09T05:39:50;101379.31;;;10.26;nan
2875;BME280;1445;52.600;13.328;2023-10-09T05:42:29;101374.84;;;10.35;nan
2875;BME280;1445;52.600;13.328;2023-10-09T05:45:10;101376.81;;;10.30;nan
2875;BME280;1445;52.600;13.328;2023-10-09T05:47:53;101371.88;;;10.26;nan
2875;BME280;1445;52.600;13.328;2023-10-09T05:52:49;101393.69;;;10.13;nan
2875;BME280;1445;52.600;13.328;2023-10-09T05:55:18;101398.63;;;10.16;nan
2875;BME280;1445;52.600;13.328;2023-10-09T06:00:36;101387.31;;;10.22;nan
2875;BME280;1445;52.600;13.328;2023-10-09T06:03:20;101392.00;;;10.17;nan
2875;BME280;1445;52.600;13.328;2023-10-09T06:05:45;101382.34;;;10.19;nan
2875;BME280;1445;52.600;13.328;2023-10-09T06:08:37;101384.25;;;10.24;nan
2875;BME280;1445;52.600;13.328;2023-10-09T06:11:08;101376.00;;;10.29;nan
2875;BME280;1445;52.600;13.328;2023-10-09T06:13:56;101380.69;;;10.29;nan
2875;BME280;1445;52.600;13.328;2023-10-09T06:16:33;101370.19;;;10.31;nan
2875;BME280;1445;52.600;13.328;2023-10-09T06:19:25;101376.53;;;10.31;nan
2875;BME280;1445;52.600;13.328;2023-10-09T06:21:54;101365.16;;;10.43;nan
2875;BME280;1445;52.600;13.328;2023-10-09T06:24:29;101360.19;;;10.45;nan
2875;BME280;1445;52.600;13.328;2023-10-09T06:27:10;101359.91;;;10.46;nan
2875;BME280;1445;52.600;13.328;2023-10-09T06:29:35;101362.88;;;10.55;nan
2875;BME280;1445;52.600;13.328;2023-10-09T06:32:04;101362.59;;;10.57;nan
2875;BME280;1445;52.600;13.328;2023-10-09T06:34:49;101355.41;;;10.61;nan
2875;BME280;1445;52.600;13.328;2023-10-09T06:37:21;101356.50;;;10.60;nan
2875;BME280;1445;52.600;13.328;2023-10-09T06:39:52;101357.09;;;10.57;nan
2875;BME280;1445;52.600;13.328;2023-10-09T06:42:21;101354.78;;;10.69;nan
2875;BME280;1445;52.600;13.328;2023-10-09T06:45:06;101354.47;;;10.70;nan
2875;BME280;1445;52.600;13.328;2023-10-09T06:47:33;101356.06;;;10.82;nan
2875;BME280;1445;52.600;13.328;2023-10-09T06:50:09;101344.81;;;10.73;nan
2875;BME280;1445;52.600;13.328;2023-10-09T06:52:49;101325.81;;;10.71;nan
2875;BME280;1445;52.600;13.328;2023-10-09T06:55:36;101319.41;;;10.76;nan
2875;BME280;1445;52.600;13.328;2023-10-09T06:58:19;101319.09;;;10.83;nan
2875;BME280;1445;52.600;13.328;2023-10-09T07:00:49;101307.25;;;10.82;nan
2875;BME280;1445;52.600;13.328;2023-10-09T07:03:26;101305.84;;;10.85;nan
2875;BME280;1445;52.600;13.328;2023-10-09T07:06:09;101305.47;;;10.91;nan
2875;BME280;1445;52.600;13.328;2023-10-09T07:08:48;101308.88;;;11.12;nan
2875;BME280;1445;52.600;13.328;2023-10-09T07:11:38;101310.56;;;11.08;nan
2875;BME280;1445;52.600;13.328;2023-10-09T07:16:55;101307.59;;;11.29;nan
2875;BME280;1445;52.600;13.328;2023-10-09T07:19:26;101297.22;;;11.44;nan
2875;BME280;1445;52.600;13.328;2023-10-09T07:22:10;101285.28;;;11.49;nan
2875;BME280;1445;52.600;13.328;2023-10-09T07:24:45;101280.00;;;11.53;nan
2875;BME280;1445;52.600;13.328;2023-10-09T07:27:17;101287.41;;;11.57;nan
2875;BME280;1445;52.600;13.328;2023-10-09T07:29:42;101288.75;;;11.60;nan
2875;BME280;1445;52.600;13.328;2023-10-09T07:32:14;101287.41;;;11.57;nan
2875;BME280;1445;52.600;13.328;2023-10-09T07:34:46;101279.81;;;11.68;nan
2875;BME280;1445;52.600;13.328;2023-10-09T07:37:23;101277.72;;;11.79;nan
2875;BME280;1445;52.600;13.328;2023-10-09T07:39:50;101269.66;;;11.82;nan
2875;BME280;1445;52.600;13.328;2023-10-09T07:42:22;101263.59;;;11.85;nan
2875;BME280;1445;52.600;13.328;2023-10-09T07:45:00;101268.53;;;11.88;nan
2875;BME280;1445;52.600;13.328;2023-10-09T07:47:36;101262.41;;;11.91;nan
2875;BME280;1445;52.600;13.328;2023-10-09T07:50:29;101270.78;;;12.05;nan
2875;BME280;1445;52.600;13.328;2023-10-09T07:53:29;101264.72;;;12.22;nan
2875;BME280;1445;52.600;13.328;2023-10-09T07:55:54;101271.63;;;12.38;nan
2875;BME280;1445;52.600;13.328;2023-10-09T07:58:24;101275.38;;;12.48;nan
2875;BME280;1445;52.600;13.328;2023-10-09T08:03:48;101292.50;;;12.50;nan
2875;BME280;1445;52.600;13.328;2023-10-09T08:06:22;101291.38;;;12.51;nan
2875;BME280;1445;52.600;13.328;2023-10-09T08:09:06;101291.81;;;12.58;nan
2875;BME280;1445;52.600;13.328;2023-10-09T08:14:08;101292.88;;;12.43;nan
2875;BME280;1445;52.600;13.328;2023-10-09T08:16:52;101290.31;;;12.47;nan
2875;BME280;1445;52.600;13.328;2023-10-09T08:19:37;101305.56;;;12.44;nan
2875;BME280;1445;52.600;13.328;2023-10-09T08:22:17;101309.47;;;12.43;nan
2875;BME280;1445;52.600;13.328;2023-10-09T08:25:02;101302.44;;;12.51;nan
2875;BME280;1445;52.600;13.328;2023-10-09T08:27:29;101294.41;;;12.49;nan
2875;BME280;1445;52.600;13.328;2023-10-09T08:30:00;101298.53;;;12.52;nan
2875;BME280;1445;52.600;13.328;2023-10-09T08:32:47;101291.28;;;12.56;nan
2875;BME280;1445;52.600;13.328;2023-10-09T08:35:30;101296.34;;;12.49;nan
2875;BME280;1445;52.600;13.328;2023-10-09T08:37:58;101285.28;;;12.49;nan
2875;BME280;1445;52.600;13.328;2023-10-09T08:40:31;101283.75;;;12.43;nan
2875;BME280;1445;52.600;13.328;2023-10-09T08:42:58;101275.38;;;12.48;nan
2875;BME280;1445;52.600;13.328;2023-10-09T08:45:27;101273.84;;;12.55;nan
2875;BME280;1445;52.600;13.328;2023-10-09T08:47:55;101275.38;;;12.48;nan
2875;BME280;1445;52.600;13.328;2023-10-09T08:50:21;101269.66;;;12.58;nan
2875;BME280;1445;52.600;13.328;2023-10-09T08:52:47;101262.72;;;12.60;nan
2875;BME280;1445;52.600;13.328;2023-10-09T08:55:14;101260.19;;;12.45;nan
2875;BME280;1445;52.600;13.328;2023-10-09T08:57:41;101261.16;;;12.54;nan
2875;BME280;1445;52.600;13.328;2023-10-09T09:00:16;101254.88;;;12.49;nan
2875;BME280;1445;52.600;13.328;2023-10-09T09:02:46;101256.16;;;12.70;nan
2875;BME280;1445;52.600;13.328;2023-10-09T09:05:21;101256.22;;;12.84;nan
2875;BME280;1445;52.600;13.328;2023-10-09T09:07:47;101256.84;;;12.95;nan
2875;BME280;1445;52.600;13.328;2023-10-09T09:10:13;101246.81;;;12.99;nan
2875;BME280;1445;52.600;13.328;2023-10-09T09:12:48;101244.75;;;13.04;nan
2875;BME280;1445;52.600;13.328;2023-10-09T09:15:25;101237.06;;;13.01;nan
2875;BME280;1445;52.600;13.328;2023-10-09T09:17:52;101234.72;;;13.08;nan
2875;BME280;1445;52.600;13.328;2023-10-09T09:20:28;101238.53;;;12.99;nan
2875;BME280;1445;52.600;13.328;2023-10-09T09:22:59;101232.56;;;13.19;nan
2875;BME280;1445;52.600;13.328;2023-10-09T09:25:47;101230.66;;;13.33;nan
2875;BME280;1445;52.600;13.328;2023-10-09T09:28:15;101226.66;;;13.40;nan
2875;BME280;1445;52.600;13.328;2023-10-09T09:30:47;101228.19;;;13.46;nan
2875;BME280;1445;52.600;13.328;2023-10-09T09:36:07;101224.00;;;13.34;nan
2875;BME280;1445;52.600;13.328;2023-10-09T09:38:35;101224.00;;;13.34;nan
2875;BME280;1445;52.600;13.328;2023-10-09T09:41:07;101236.38;;;13.51;nan
2875;BME280;1445;52.600;13.328;2023-10-09T09:43:33;101228.78;;;13.56;nan
2875;BME280;1445;52.600;13.328;2023-10-09T09:46:00;101231.38;;;13.39;nan
2875;BME280;1445;52.600;13.328;2023-10-09T09:48:29;101223.25;;;13.43;nan
2875;BME280;1445;52.600;13.328;2023-10-09T09:50:57;101242.53;;;13.48;nan
2875;BME280;1445;52.600;13.328;2023-10-09T09:53:22;101234.41;;;13.65;nan
2875;BME280;1445;52.600;13.328;2023-10-09T09:55:52;101231.16;;;13.63;nan
2875;BME280;1445;52.600;13.328;2023-10-09T09:58:22;101223.31;;;13.65;nan
2875;BME280;1445;52.600;13.328;2023-10-09T10:00:52;101219.34;;;13.57;nan
2875;BME280;1445;52.600;13.328;2023-10-09T10:05:44;101221.50;;;13.47;nan
2875;BME280;1445;52.600;13.328;2023-10-09T10:08:20;101225.97;;;13.34;nan
2875;BME280;1445;52.600;13.328;2023-10-09T10:10:46;101234.03;;;13.17;nan
2875;BME280;1445;52.600;13.328;2023-10-09T10:16:06;101224.25;;;13.19;nan
2875;BME280;1445;52.600;13.328;2023-10-09T10:21:24;101217.09;;;13.04;nan
2875;BME280;1445;52.600;13.328;2023-10-09T10:23:59;101233.28;;;12.97;nan
2875;BME280;1445;52.600;13.328;2023-10-09T10:26:37;101230.09;;;13.04;nan
2875;BME280;1445;52.600;13.328;2023-10-09T10:31:53;101229.78;;;13.19;nan
2875;BME280;1445;52.600;13.328;2023-10-09T10:34:22;101222.25;;;13.39;nan
2875;BME280;1445;52.600;13.328;2023-10-09T10:36:49;101201.00;;;13.48;nan
2875;BME280;1445;52.600;13.328;2023-10-09T10:39:17;101202.63;;;13.63;nan
2875;BME280;1445;52.600;13.328;2023-10-09T10:42:07;101193.19;;;13.64;nan
2875;BME280;1445;52.600;13.328;2023-10-09T10:44:34;101189.19;;;13.56;nan
2875;BME280;1445;52.600;13.328;2023-10-09T10:47:01;101191.00;;;13.74;nan
2875;BME280;1445;52.600;13.328;2023-10-09T10:49:27;101197.50;;;13.92;nan
2875;BME280;1445;52.600;13.328;2023-10-09T10:52:01;101179.41;;;13.72;nan
2875;BME280;1445;52.600;13.328;2023-10-09T10:54:40;101173.41;;;13.56;nan
2875;BME280;1445;52.600;13.328;2023-10-09T10:57:13;101167.84;;;13.56;nan
2875;BME280;1445;52.600;13.328;2023-10-09T10:59:44;101177.19;;;13.47;nan
2875;BME280;1445;52.600;13.328;2023-10-09T11:02:10;101176.31;;;13.38;nan
2875;BME280;1445;52.600;13.328;2023-10-09T11:04:36;101177.72;;;13.21;nan
2875;BME280;1445;52.600;13.328;2023-10-09T11:07:01;101186.34;;;13.33;nan
2875;BME280;1445;52.600;13.328;2023-10-09T11:15:08;101169.28;;;13.54;nan
2875;BME280;1445;52.600;13.328;2023-10-09T11:20:30;101158.88;;;13.09;nan
2875;BME280;1445;52.600;13.328;2023-10-09T11:22:57;101159.50;;;13.06;nan
2875;BME280;1445;52.600;13.328;2023-10-09T11:25:39;101177.31;;;12.86;nan
2875;BME280;1445;52.600;13.328;2023-10-09T11:30:55;101166.44;;;12.76;nan
2875;BME280;1445;52.600;13.328;2023-10-09T11:33:20;101172.59;;;12.87;nan
2875;BME280;1445;52.600;13.328;2023-10-09T11:35:56;101178.72;;;12.84;nan
2875;BME280;1445;52.600;13.328;2023-10-09T11:38:24;101176.09;;;13.06;nan
2875;BME280;1445;52.600;13.328;2023-10-09T11:40:51;101169.19;;;13.59;nan
2875;BME280;1445;52.600;13.328;2023-10-09T11:43:19;101149.91;;;13.90;nan
2875;BME280;1445;52.600;13.328;2023-10-09T11:46:10;101141.53;;;14.04;nan
2875;BME280;1445;52.600;13.328;2023-10-09T11:49:06;101129.38;;;14.45;nan
2875;BME280;1445;52.600;13.328;2023-10-09T11:51:43;101112.97;;;14.26;nan
2875;BME280;1445;52.600;13.328;2023-10-09T11:54:29;101111.03;;;14.04;nan
2875;BME280;1445;52.600;13.328;2023-10-09T11:56:55;101105.97;;;14.06;nan
2875;BME280;1445;52.600;13.328;2023-10-09T11:59:20;101106.31;;;14.04;nan
2875;BME280;1445;52.600;13.328;2023-10-09T12:01:48;101103.25;;;14.46;nan
2875;BME280;1445;52.600;13.328;2023-10-09T12:04:18;101091.25;;;15.08;nan
2875;BME280;1445;52.600;13.328;2023-10-09T12:06:44;101087.50;;;15.03;nan
2875;BME280;1445;52.600;13.328;2023-10-09T12:09:09;101090.63;;;15.19;nan
2875;BME280;1445;52.600;13.328;2023-10-09T12:11:41;101083.63;;;15.39;nan
2875;BME280;1445;52.600;13.328;2023-10-09T12:14:07;101077.22;;;15.04;nan
2875;BME280;1445;52.600;13.328;2023-10-09T12:16:32;101084.53;;;14.91;nan
2875;BME280;1445;52.600;13.328;2023-10-09T12:18:58;101088.31;;;14.55;nan
2875;BME280;1445;52.600;13.328;2023-10-09T12:21:24;101100.22;;;14.25;nan
2875;BME280;1445;52.600;13.328;2023-10-09T12:23:53;101108.66;;;14.20;nan
2875;BME280;1445;52.600;13.328;2023-10-09T12:26:22;101102.13;;;14.16;nan
2875;BME280;1445;52.600;13.328;2023-10-09T12:28:50;101107.09;;;14.50;nan
2875;BME280;1445;52.600;13.328;2023-10-09T12:31:16;101109.31;;;14.48;nan
2875;BME280;1445;52.600;13.328;2023-10-09T12:33:45;101097.94;;;14.27;nan
2875;BME280;1445;52.600;13.328;2023-10-09T12:36:11;101096.69;;;14.33;nan
2875;BME280;1445;52.600;13.328;2023-10-09T12:38:44;101094.97;;;14.15;nan
2875;BME280;1445;52.600;13.328;2023-10-09T12:41:13;101096.03;;;14.05;nan
2875;BME280;1445;52.600;13.328;2023-10-09T12:44:04;101100.69;;;13.96;nan
2875;BME280;1445;52.600;13.328;2023-10-09T12:46:30;101097.50;;;13.80;nan
2875;BME280;1445;52.600;13.328;2023-10-09T12:49:02;101112.63;;;13.38;nan
2875;BME280;1445;52.600;13.328;2023-10-09T12:51:27;101117.59;;;13.49;nan
2875;BME280;1445;52.600;13.328;2023-10-09T12:53:55;101123.22;;;13.58;nan
2875;BME280;1445;52.600;13.328;2023-10-09T12:56:26;101120.81;;;13.43;nan
2875;BME280;1445;52.600;13.328;2023-10-09T12:59:01;101128.88;;;13.53;nan
2875;BME280;1445;52.600;13.328;2023-10-09T13:01:27;101121.22;;;13.72;nan
2875;BME280;1445;52.600;13.328;2023-10-09T13:03:57;101121.16;;;13.86;nan
2875;BME280;1445;52.600;13.328;2023-10-09T13:06:24;101119.47;;;13.76;nan
2875;BME280;1445;52.600;13.328;2023-10-09T13:08:50;101106.81;;;13.84;nan
2875;BME280;1445;52.600;13.328;2023-10-09T13:11:17;101108.75;;;14.06;nan
2875;BME280;1445;52.600;13.328;2023-10-09T13:13:42;101103.31;;;14.23;nan
2875;BME280;1445;52.600;13.328;2023-10-09T13:16:09;101092.38;;;13.73;nan
2875;BME280;1445;52.600;13.328;2023-10-09T13:18:37;101105.94;;;14.28;nan
2875;BME280;1445;52.600;13.328;2023-10-09T13:21:03;101095.03;;;14.01;nan
2875;BME280;1445;52.600;13.328;2023-10-09T13:23:30;101105.72;;;14.16;nan
2875;BME280;1445;52.600;13.328;2023-10-09T13:26:03;101102.06;;;14.29;nan
2875;BME280;1445;52.600;13.328;2023-10-09T13:28:33;101113.53;;;14.14;nan
2875;BME280;1445;52.600;13.328;2023-10-09T13:31:02;101120.28;;;13.99;nan
2875;BME280;1445;52.600;13.328;2023-10-09T13:33:29;101113.63;;;13.42;nan
2875;BME280;1445;52.600;13.328;2023-10-09T13:36:01;101127.78;;;13.26;nan
2875;BME280;1445;52.600;13.328;2023-10-09T13:38:27;101137.34;;;13.06;nan
2875;BME280;1445;52.600;13.328;2023-10-09T13:40:57;101145.53;;;12.84;nan
2875;BME280;1445;52.600;13.328;2023-10-09T13:43:26;101157.22;;;13.08;nan
2875;BME280;1445;52.600;13.328;2023-10-09T13:45:53;101147.56;;;13.20;nan
2875;BME280;1445;52.600;13.328;2023-10-09T13:48:18;101159.28;;;12.89;nan
2875;BME280;1445;52.600;13.328;2023-10-09T13:50:46;101156.19;;;12.90;nan
2875;BME280;1445;52.600;13.328;2023-10-09T13:53:12;101153.53;;;12.99;nan
2875;BME280;1445;52.600;13.328;2023-10-09T13:55:39;101159.91;;;13.00;nan
2875;BME280;1445;52.600;13.328;2023-10-09T13:58:08;101167.66;;;13.11;nan
2875;BME280;1445;52.600;13.328;2023-10-09T14:00:38;101151.47;;;13.19;nan
2875;BME280;1445;52.600;13.328;2023-10-09T14:03:07;101151.38;;;13.10;nan
2875;BME280;1445;52.600;13.328;2023-10-09T14:05:39;101156.81;;;13.15;nan
2875;BME280;1445;52.600;13.328;2023-10-09T14:08:17;101152.28;;;13.05;nan
2875;BME280;1445;52.600;13.328;2023-10-09T14:10:42;101152.09;;;13.02;nan
2875;BME280;1445;52.600;13.328;2023-10-09T14:13:12;101169.53;;;12.88;nan
2875;BME280;1445;52.600;13.328;2023-10-09T14:15:38;101163.66;;;12.76;nan
2875;BME280;1445;52.600;13.328;2023-10-09T14:18:08;101156.31;;;12.85;nan
2875;BME280;1445;52.600;13.328;2023-10-09T14:20:39;101156.19;;;12.90;nan
2875;BME280;1445;52.600;13.328;2023-10-09T14:23:06;101159.69;;;12.82;nan
2875;BME280;1445;52.600;13.328;2023-10-09T14:25:35;101152.72;;;12.85;nan
2875;BME280;1445;52.600;13.328;2023-10-09T14:28:03;101160.19;;;12.98;nan
2875;BME280;1445;52.600;13.328;2023-10-09T14:30:32;101150.25;;;13.11;nan
2875;BME280;1445;52.600;13.328;2023-10-09T14:33:00;101153.22;;;13.01;nan